Time;durP1;ratioP1;P1;durP2;ratioP2;P2;SDS_P1;SDS_P2;PMS_P1;PMS_P2;Temp;Humidity;BMP_temperature;BMP_pressure;BME280_temperature;BME280_humidity;BME280_pressure;Samples;Min_cycle;Max_cycle;Signal;HPM_P1;HPM_P2
2022/09/18 00:02:03;;;;;;;1.85;0.30;;;11.40;99.90;;;;;;6184627;23;20013;-84
2022/09/18 00:04:29;;;;;;;1.60;0.35;;;11.30;99.90;;;;;;6159465;23;20017;-82
2022/09/18 00:06:55;;;;;;;2.20;0.60;;;11.30;99.90;;;;;;6159424;23;20019;-84
2022/09/18 00:09:21;;;;;;;1.67;0.30;;;11.30;99.90;;;;;;6184376;23;20382;-83
2022/09/18 00:11:52;;;;;;;2.38;0.20;;;11.30;99.90;;;;;;6160040;23;20065;-85
2022/09/18 00:14:22;;;;;;;2.75;0.30;;;11.30;99.90;;;;;;6186480;23;20048;-84
2022/09/18 00:16:48;;;;;;;1.05;0.20;;;11.30;99.90;;;;;;6217222;23;20032;-83
2022/09/18 00:19:15;;;;;;;2.30;0.20;;;11.30;99.90;;;;;;6186671;23;20510;-84
2022/09/18 00:21:44;;;;;;;;;;;11.30;99.90;;;;;;6212439;23;20071;-84
2022/09/18 00:24:11;;;;;;;3.08;0.28;;;11.30;99.90;;;;;;6185395;23;19916;-85
2022/09/18 00:26:37;;;;;;;;;;;11.40;99.90;;;;;;6161163;23;20027;-84
2022/09/18 00:29:03;;;;;;;1.98;0.52;;;11.40;99.90;;;;;;6185590;22;20371;-84
2022/09/18 00:31:30;;;;;;;;;;;11.40;99.90;;;;;;6212685;23;20016;-84
2022/09/18 00:33:57;;;;;;;2.65;0.22;;;11.50;99.90;;;;;;6212185;22;20300;-85
2022/09/18 00:36:23;;;;;;;;;;;11.40;99.90;;;;;;6161296;23;20017;-85
2022/09/18 00:38:49;;;;;;;0.68;0.17;;;11.40;99.90;;;;;;6185310;22;19961;-84
2022/09/18 00:41:18;;;;;;;2.85;0.52;;;11.40;99.90;;;;;;6185822;23;20027;-85
2022/09/18 00:43:44;;;;;;;6.25;1.27;;;11.40;99.90;;;;;;6212065;23;20095;-85
2022/09/18 00:46:31;;;;;;;1.23;0.20;;;11.40;99.90;;;;;;6160950;23;20398;-86
2022/09/18 00:49:06;;;;;;;2.72;0.47;;;11.30;99.90;;;;;;6185505;23;20424;-84
2022/09/18 00:51:35;;;;;;;1.25;0.15;;;11.30;99.90;;;;;;6163185;23;20012;-83
2022/09/18 00:54:26;;;;;;;1.52;0.20;;;11.30;99.90;;;;;;6186754;23;20017;-84
2022/09/18 00:56:57;;;;;;;2.42;0.40;;;11.30;99.90;;;;;;6188854;23;20021;-84
2022/09/18 00:59:27;;;;;;;2.65;0.40;;;11.30;99.90;;;;;;6160501;23;20023;-84
2022/09/18 01:01:55;;;;;;;3.80;0.32;;;11.30;99.90;;;;;;6185335;23;20095;-84
2022/09/18 01:04:20;;;;;;;3.50;0.50;;;11.30;99.90;;;;;;6160460;23;20046;-84
2022/09/18 01:07:08;;;;;;;1.40;0.20;;;11.30;99.90;;;;;;6136166;23;20022;-85
2022/09/18 01:09:47;;;;;;;;;;;11.40;99.90;;;;;;6160954;23;20024;-85
2022/09/18 01:12:15;;;;;;;;;;;11.40;99.90;;;;;;6185895;23;20367;-85
2022/09/18 01:15:02;;;;;;;0.47;0.10;;;11.40;99.90;;;;;;6160512;23;19916;-85
2022/09/18 01:17:48;;;;;;;1.85;0.20;;;11.30;99.90;;;;;;6185469;23;20025;-84
2022/09/18 01:20:17;;;;;;;1.25;0.20;;;11.40;99.90;;;;;;6160499;23;20070;-84
2022/09/18 01:23:13;;;;;;;2.63;0.20;;;11.40;99.90;;;;;;6185202;22;20024;-84
2022/09/18 01:26:09;;;;;;;0.52;0.30;;;11.40;99.90;;;;;;6185385;23;20468;-84
2022/09/18 01:28:50;;;;;;;1.95;0.20;;;11.40;99.90;;;;;;6184703;23;20017;-84
2022/09/18 01:31:29;;;;;;;0.65;0.10;;;11.40;99.90;;;;;;6211802;23;20021;-85
2022/09/18 01:34:08;;;;;;;4.68;0.25;;;11.40;99.90;;;;;;6185274;23;20095;-86
2022/09/18 01:36:39;;;;;;;2.42;0.25;;;11.40;99.90;;;;;;6185268;23;20017;-85
2022/09/18 01:39:17;;;;;;;1.80;0.40;;;11.40;99.90;;;;;;6185362;23;20042;-85
2022/09/18 01:41:50;;;;;;;1.73;0.28;;;11.40;99.90;;;;;;6161171;23;20017;-85
2022/09/18 01:44:30;;;;;;;1.65;0.20;;;11.40;99.90;;;;;;6160098;23;20028;-85
2022/09/18 01:46:58;;;;;;;1.27;0.25;;;11.40;99.90;;;;;;6185273;23;20046;-83
2022/09/18 01:49:32;;;;;;;0.75;0.20;;;11.40;99.90;;;;;;6211476;23;20017;-84
2022/09/18 01:52:10;;;;;;;0.65;0.10;;;11.40;99.90;;;;;;6211803;23;20040;-84
2022/09/18 01:54:56;;;;;;;0.52;0.15;;;11.40;99.90;;;;;;6160227;23;20100;-85
2022/09/18 01:57:27;;;;;;;2.65;0.35;;;11.30;99.90;;;;;;6160238;23;20120;-83
2022/09/18 02:00:16;;;;;;;1.10;0.20;;;11.30;99.90;;;;;;6185257;23;20052;-84
2022/09/18 02:02:49;;;;;;;1.95;0.20;;;11.30;99.90;;;;;;6184525;23;20024;-83
2022/09/18 02:05:22;;;;;;;2.58;0.40;;;11.30;99.90;;;;;;6185052;22;20024;-84
2022/09/18 02:08:14;;;;;;;1.17;0.20;;;11.30;99.90;;;;;;6160316;23;20160;-82
2022/09/18 02:11:15;;;;;;;0.50;0.20;;;11.30;99.90;;;;;;6160414;23;20053;-81
2022/09/18 02:14:21;;;;;;;5.00;0.30;;;11.20;99.90;;;;;;6160552;23;20424;-84
2022/09/18 02:17:00;;;;;;;0.63;0.10;;;11.20;99.90;;;;;;6184963;23;20445;-83
2022/09/18 02:19:34;;;;;;;1.05;0.30;;;11.20;99.90;;;;;;6185052;23;20052;-84
2022/09/18 02:22:05;;;;;;;1.50;0.20;;;11.20;99.90;;;;;;6185271;23;20020;-84
2022/09/18 02:24:45;;;;;;;1.00;0.20;;;11.20;99.90;;;;;;6154739;23;20013;-84
2022/09/18 02:27:14;;;;;;;1.60;0.20;;;11.20;99.90;;;;;;6155046;23;20017;-84
2022/09/18 02:29:43;;;;;;;1.88;0.45;;;11.20;99.90;;;;;;6180034;23;20013;-84
2022/09/18 02:32:08;;;;;;;0.38;0.00;;;11.20;99.90;;;;;;6180078;23;20142;-87
2022/09/18 02:34:34;;;;;;;2.40;0.30;;;11.10;99.90;;;;;;6179789;23;20009;-84
2022/09/18 02:37:26;;;;;;;1.83;0.45;;;11.20;99.90;;;;;;6180021;23;20264;-83
2022/09/18 02:40:15;;;;;;;2.13;0.28;;;11.20;99.90;;;;;;6179668;23;20013;-85
2022/09/18 02:43:07;;;;;;;1.10;0.32;;;11.20;99.90;;;;;;6179795;23;20104;-84
2022/09/18 02:45:50;;;;;;;1.73;0.30;;;11.20;99.90;;;;;;6181338;23;20024;-83
2022/09/18 02:48:38;;;;;;;4.30;0.35;;;11.10;99.90;;;;;;6155113;23;20326;-83
2022/09/18 02:51:30;;;;;;;4.05;0.40;;;11.10;99.90;;;;;;6155222;23;20064;-84
2022/09/18 02:54:02;;;;;;;1.20;0.20;;;11.10;99.90;;;;;;6181749;23;20028;-84
2022/09/18 02:56:41;;;;;;;1.88;0.17;;;11.20;99.90;;;;;;6184473;23;20056;-84
2022/09/18 02:59:30;;;;;;;1.25;0.30;;;11.20;99.90;;;;;;6183067;23;20021;-84
2022/09/18 03:01:57;;;;;;;0.57;0.20;;;11.20;99.90;;;;;;6180031;23;20059;-84
2022/09/18 03:04:25;;;;;;;1.02;0.20;;;11.20;99.90;;;;;;6154912;23;20021;-84
2022/09/18 03:06:51;;;;;;;0.82;0.20;;;11.10;99.90;;;;;;6155293;23;20017;-84
2022/09/18 03:09:17;;;;;;;;;;;11.20;99.90;;;;;;6155406;23;20507;-84
2022/09/18 03:11:43;;;;;;;2.60;0.40;;;11.20;99.90;;;;;;6179872;23;19916;-82
2022/09/18 03:14:09;;;;;;;1.75;0.40;;;11.20;99.90;;;;;;6154794;23;20017;-83
2022/09/18 03:16:35;;;;;;;2.67;0.25;;;11.10;99.90;;;;;;6179665;23;20017;-83
2022/09/18 03:19:01;;;;;;;1.03;0.30;;;11.20;99.90;;;;;;6179818;23;20021;-84
2022/09/18 03:21:27;;;;;;;0.43;0.10;;;11.20;99.90;;;;;;6181224;23;20017;-83
2022/09/18 03:23:52;;;;;;;2.10;0.97;;;11.20;99.90;;;;;;6179530;23;20473;-82
2022/09/18 03:26:19;;;;;;;0.83;0.10;;;11.20;99.90;;;;;;6181604;22;20022;-83
2022/09/18 03:28:45;;;;;;;5.43;0.43;;;11.10;99.90;;;;;;6181142;22;20353;-83
2022/09/18 03:31:11;;;;;;;3.10;0.50;;;11.20;99.90;;;;;;6130377;23;20022;-84
2022/09/18 03:33:37;;;;;;;0.88;0.30;;;11.10;99.90;;;;;;6179763;23;20017;-83
2022/09/18 03:36:04;;;;;;;5.28;0.28;;;11.10;99.90;;;;;;6179548;23;20021;-83
2022/09/18 03:38:31;;;;;;;2.97;0.22;;;11.10;99.90;;;;;;6179485;23;20025;-83
2022/09/18 03:40:56;;;;;;;;;;;11.10;99.90;;;;;;6181357;23;20047;-84
2022/09/18 03:43:23;;;;;;;1.50;0.30;;;11.10;99.90;;;;;;6179400;23;19916;-83
2022/09/18 03:45:48;;;;;;;2.28;0.30;;;11.10;99.90;;;;;;6179656;23;20013;-83
2022/09/18 03:48:14;;;;;;;2.80;0.77;;;11.10;99.90;;;;;;6179438;23;20056;-83
2022/09/18 03:50:40;;;;;;;1.33;0.20;;;11.10;99.90;;;;;;6180995;23;20021;-84
2022/09/18 03:53:07;;;;;;;0.73;0.10;;;11.10;99.90;;;;;;6158104;23;20052;-83
2022/09/18 03:55:34;;;;;;;0.90;0.25;;;11.10;99.90;;;;;;6183056;23;20051;-83
2022/09/18 03:58:01;;;;;;;0.82;0.22;;;11.10;99.90;;;;;;6182833;23;20096;-83
2022/09/18 04:00:26;;;;;;;1.73;0.38;;;11.10;99.90;;;;;;6184174;23;20023;-84
2022/09/18 04:02:52;;;;;;;5.93;0.57;;;11.10;99.90;;;;;;6182389;23;20099;-85
2022/09/18 04:05:18;;;;;;;0.93;0.17;;;11.10;99.90;;;;;;6182611;23;20095;-83
2022/09/18 04:07:43;;;;;;;0.97;0.17;;;11.10;99.90;;;;;;6182666;23;20036;-84
2022/09/18 04:10:09;;;;;;;0.97;0.23;;;11.10;99.90;;;;;;6182758;23;20028;-84
2022/09/18 04:12:35;;;;;;;4.18;0.40;;;11.10;99.90;;;;;;6158173;23;20068;-83
2022/09/18 04:15:00;;;;;;;0.67;0.20;;;11.10;99.90;;;;;;6184326;22;20096;-83
2022/09/18 04:17:26;;;;;;;1.87;0.20;;;11.10;99.90;;;;;;6133307;23;20017;-83
2022/09/18 04:19:52;;;;;;;0.87;0.20;;;11.10;99.90;;;;;;6182804;22;20013;-83
2022/09/18 04:22:18;;;;;;;0.83;0.10;;;11.00;99.90;;;;;;6135126;23;20017;-85
2022/09/18 04:24:45;;;;;;;1.00;0.20;;;11.00;99.90;;;;;;6187436;23;20028;-83
2022/09/18 04:27:10;;;;;;;0.30;0.10;;;11.00;99.90;;;;;;6187357;23;20252;-83
2022/09/18 04:29:36;;;;;;;2.77;0.40;;;11.00;99.90;;;;;;6187617;23;20143;-86
2022/09/18 04:32:02;;;;;;;2.37;0.20;;;11.00;99.90;;;;;;6213793;22;20024;-83
2022/09/18 04:34:28;;;;;;;1.90;0.30;;;11.00;99.90;;;;;;6187394;23;20026;-83
2022/09/18 04:36:53;;;;;;;1.73;0.20;;;11.00;99.90;;;;;;6187436;23;20096;-83
2022/09/18 04:39:19;;;;;;;1.20;0.20;;;11.00;99.90;;;;;;6162564;23;20020;-83
2022/09/18 04:41:44;;;;;;;2.07;0.30;;;10.90;99.90;;;;;;6213939;23;20476;-84
2022/09/18 04:44:11;;;;;;;0.63;0.20;;;10.90;99.90;;;;;;6187265;23;20503;-83
2022/09/18 04:46:36;;;;;;;2.78;0.13;;;11.00;99.90;;;;;;6214047;23;20021;-83
2022/09/18 04:49:02;;;;;;;0.87;0.10;;;10.90;99.90;;;;;;6187461;23;20021;-83
2022/09/18 04:51:28;;;;;;;2.40;0.15;;;10.90;99.90;;;;;;6138128;23;20024;-83
2022/09/18 04:53:54;;;;;;;0.87;0.30;;;10.90;99.90;;;;;;6162595;23;20091;-84
2022/09/18 04:56:19;;;;;;;1.60;0.20;;;11.00;99.90;;;;;;6187426;23;20059;-82
2022/09/18 04:58:45;;;;;;;3.53;0.60;;;10.90;99.90;;;;;;6187597;23;20032;-83
2022/09/18 05:01:11;;;;;;;0.67;0.10;;;11.00;99.90;;;;;;6188506;23;20028;-83
2022/09/18 05:03:36;;;;;;;2.55;0.30;;;11.00;99.90;;;;;;6214453;23;20023;-83
2022/09/18 05:06:02;;;;;;;2.73;0.23;;;11.00;99.90;;;;;;6212099;23;20453;-83
2022/09/18 05:08:28;;;;;;;0.50;0.17;;;11.00;99.90;;;;;;6185230;23;20052;-83
2022/09/18 05:10:54;;;;;;;1.77;0.40;;;11.00;99.90;;;;;;6160546;23;20255;-83
2022/09/18 05:13:20;;;;;;;1.20;0.17;;;11.00;99.90;;;;;;6185501;23;20096;-84
2022/09/18 05:15:46;;;;;;;2.17;0.27;;;11.00;99.90;;;;;;6185518;23;20113;-83
2022/09/18 05:18:12;;;;;;;0.60;0.10;;;11.00;99.90;;;;;;6185340;23;20020;-83
2022/09/18 05:20:38;;;;;;;4.32;0.30;;;11.00;99.90;;;;;;6211835;23;20031;-83
2022/09/18 05:23:05;;;;;;;3.53;0.30;;;11.00;99.90;;;;;;6211654;23;20017;-83
2022/09/18 05:25:31;;;;;;;0.57;0.10;;;11.00;99.90;;;;;;6211893;23;20016;-83
2022/09/18 05:27:59;;;;;;;4.23;0.20;;;11.00;99.90;;;;;;6211958;23;20069;-83
2022/09/18 05:30:26;;;;;;;0.60;0.20;;;11.00;99.90;;;;;;6211758;23;20240;-82
2022/09/18 05:33:02;;;;;;;0.60;0.10;;;11.00;99.90;;;;;;6211626;23;20354;-83
2022/09/18 05:35:31;;;;;;;1.40;0.40;;;11.00;99.90;;;;;;6185451;23;20021;-82
2022/09/18 05:37:57;;;;;;;0.55;0.30;;;11.00;99.90;;;;;;6187591;22;20403;-83
2022/09/18 05:40:25;;;;;;;0.30;0.10;;;11.00;99.90;;;;;;6185411;23;20020;-83
2022/09/18 05:42:51;;;;;;;0.85;0.25;;;11.00;99.90;;;;;;6184794;23;20059;-84
2022/09/18 05:45:19;;;;;;;4.80;0.17;;;11.00;99.90;;;;;;6211670;23;20038;-83
2022/09/18 05:47:59;;;;;;;1.27;0.28;;;11.00;99.90;;;;;;6211744;23;20349;-83
2022/09/18 05:50:27;;;;;;;0.35;0.10;;;11.00;99.90;;;;;;6211675;23;20364;-84
2022/09/18 05:53:11;;;;;;;0.70;0.15;;;11.00;99.90;;;;;;6211601;23;20096;-83
2022/09/18 05:55:38;;;;;;;1.45;0.20;;;11.00;99.90;;;;;;6185007;23;20048;-83
2022/09/18 05:58:06;;;;;;;1.65;0.28;;;11.00;99.90;;;;;;6211632;23;20017;-82
2022/09/18 06:00:33;;;;;;;1.55;0.20;;;11.00;99.90;;;;;;6211561;23;20013;-82
2022/09/18 06:03:02;;;;;;;1.70;0.20;;;11.00;99.90;;;;;;6185126;23;20016;-83
2022/09/18 06:05:29;;;;;;;1.63;0.40;;;11.00;99.90;;;;;;6185237;23;20474;-89
2022/09/18 06:08:00;;;;;;;1.88;0.30;;;10.90;99.90;;;;;;6160331;23;20046;-82
2022/09/18 06:10:28;;;;;;;1.90;0.30;;;10.90;99.90;;;;;;6185270;23;20384;-83
2022/09/18 06:13:05;;;;;;;1.75;0.40;;;10.90;99.90;;;;;;6211430;23;20031;-84
2022/09/18 06:15:31;;;;;;;1.17;0.20;;;10.90;99.90;;;;;;6161469;23;20017;-83
2022/09/18 06:17:57;;;;;;;0.68;0.13;;;10.80;99.90;;;;;;6211781;23;20020;-84
2022/09/18 06:20:23;;;;;;;1.40;0.20;;;10.80;99.90;;;;;;6160141;23;20124;-84
2022/09/18 06:22:49;;;;;;;0.83;0.20;;;10.80;99.90;;;;;;6211425;22;20013;-83
2022/09/18 06:25:18;;;;;;;0.80;0.10;;;10.80;99.90;;;;;;6184910;23;20013;-83
2022/09/18 06:27:44;;;;;;;2.35;0.30;;;10.80;99.90;;;;;;6184901;23;20020;-84
2022/09/18 06:30:10;;;;;;;3.38;0.20;;;10.80;99.90;;;;;;6211572;23;20012;-83
2022/09/18 06:32:36;;;;;;;2.88;0.50;;;10.80;99.90;;;;;;6211465;23;20031;-83
2022/09/18 06:35:01;;;;;;;2.20;0.30;;;10.80;99.90;;;;;;6211613;23;20020;-85
2022/09/18 06:37:27;;;;;;;1.60;0.33;;;10.80;99.90;;;;;;6185231;22;20044;-84
2022/09/18 06:39:53;;;;;;;3.10;0.20;;;10.90;99.90;;;;;;6160284;23;20073;-83
2022/09/18 06:42:18;;;;;;;2.37;0.20;;;10.90;99.90;;;;;;6184904;23;20024;-83
2022/09/18 06:44:44;;;;;;;5.53;0.17;;;10.90;99.90;;;;;;6211770;23;20036;-83
2022/09/18 06:47:09;;;;;;;0.87;0.10;;;10.90;99.90;;;;;;6184831;23;20342;-83
2022/09/18 06:49:35;;;;;;;1.70;0.30;;;10.90;99.90;;;;;;6160367;23;20017;-83
2022/09/18 06:52:01;;;;;;;0.80;0.20;;;10.90;99.90;;;;;;6185063;22;20099;-84
2022/09/18 06:54:27;;;;;;;0.98;0.20;;;11.00;99.90;;;;;;6211503;23;20020;-83
2022/09/18 06:56:52;;;;;;;1.00;0.20;;;10.90;99.90;;;;;;6211526;23;20017;-83
2022/09/18 06:59:18;;;;;;;1.47;0.30;;;11.00;99.90;;;;;;6211387;23;20052;-83
2022/09/18 07:01:47;;;;;;;2.17;0.20;;;10.90;99.90;;;;;;6184977;23;20016;-83
2022/09/18 07:04:13;;;;;;;1.10;0.20;;;10.90;99.90;;;;;;6212425;23;20013;-84
2022/09/18 07:06:39;;;;;;;5.10;1.10;;;10.90;99.90;;;;;;6186135;23;20116;-86
2022/09/18 07:09:05;;;;;;;0.60;0.25;;;11.00;99.90;;;;;;6160258;23;20076;-83
2022/09/18 07:11:30;;;;;;;0.57;0.20;;;10.90;99.90;;;;;;6184937;22;20021;-83
2022/09/18 07:13:56;;;;;;;1.60;0.20;;;10.90;99.90;;;;;;6184926;23;20390;-83
2022/09/18 07:16:21;;;;;;;0.67;0.20;;;10.90;99.90;;;;;;6184849;23;20024;-84
2022/09/18 07:18:47;;;;;;;1.40;0.10;;;11.00;99.90;;;;;;6160183;23;20013;-84
2022/09/18 07:21:13;;;;;;;0.77;0.10;;;11.00;99.90;;;;;;6211438;23;20021;-83
2022/09/18 07:23:39;;;;;;;3.97;0.40;;;11.00;99.90;;;;;;6184408;23;20412;-83
2022/09/18 07:26:04;;;;;;;1.20;0.20;;;11.00;99.90;;;;;;6184503;23;20021;-82
2022/09/18 07:28:32;;;;;;;0.67;0.10;;;11.00;99.90;;;;;;6160063;23;20021;-83
2022/09/18 07:31:03;;;;;;;0.50;0.15;;;11.00;99.90;;;;;;6160309;23;20081;-84
2022/09/18 07:33:28;;;;;;;0.93;0.20;;;11.00;99.90;;;;;;6184467;23;20020;-83
2022/09/18 07:35:59;;;;;;;1.73;0.30;;;11.00;99.90;;;;;;6184569;23;20023;-83
2022/09/18 07:38:24;;;;;;;0.40;0.10;;;11.00;99.90;;;;;;6161189;23;20064;-82
2022/09/18 07:40:50;;;;;;;1.07;0.17;;;11.00;99.90;;;;;;6213507;23;20044;-82
2022/09/18 07:43:21;;;;;;;0.38;0.10;;;11.10;99.90;;;;;;6186494;23;20048;-82
2022/09/18 07:45:53;;;;;;;0.30;0.00;;;11.10;99.90;;;;;;6159826;23;20028;-82
2022/09/18 07:48:24;;;;;;;0.10;0.03;;;11.10;99.90;;;;;;6182990;23;20334;-82
2022/09/18 07:50:50;;;;;;;0.75;0.10;;;11.10;99.90;;;;;;6182937;23;20020;-82
2022/09/18 07:53:17;;;;;;;0.20;0.10;;;11.10;99.90;;;;;;6157589;23;20013;-82
2022/09/18 07:55:46;;;;;;;0.57;0.20;;;11.20;99.90;;;;;;6159320;22;20020;-83
2022/09/18 07:58:22;;;;;;;1.33;0.47;;;11.20;99.90;;;;;;6184505;23;20021;-84
2022/09/18 08:00:48;;;;;;;1.30;0.20;;;11.20;99.90;;;;;;6159579;23;20029;-81
2022/09/18 08:03:14;;;;;;;0.80;0.20;;;11.20;99.90;;;;;;6159656;23;20467;-83
2022/09/18 08:05:40;;;;;;;1.20;0.20;;;11.20;99.90;;;;;;6134821;23;20115;-83
2022/09/18 08:08:07;;;;;;;;;;;11.20;99.90;;;;;;6184867;23;20095;-89
2022/09/18 08:10:34;;;;;;;0.63;0.10;;;11.20;99.90;;;;;;6157478;23;19916;-82
2022/09/18 08:13:01;;;;;;;0.43;0.10;;;11.20;99.90;;;;;;6157768;23;20016;-82
2022/09/18 08:15:27;;;;;;;1.17;0.20;;;11.20;99.90;;;;;;6210648;23;20016;-82
2022/09/18 08:17:53;;;;;;;1.15;0.20;;;11.30;99.90;;;;;;6184071;23;20468;-82
2022/09/18 08:20:20;;;;;;;0.43;0.10;;;11.30;99.90;;;;;;6159213;23;20103;-83
2022/09/18 08:22:58;;;;;;;0.57;0.08;;;11.30;99.90;;;;;;6154015;23;20028;-81
2022/09/18 08:25:26;;;;;;;2.63;0.28;;;11.30;99.90;;;;;;6156452;23;20021;-81
2022/09/18 08:27:59;;;;;;;1.85;0.47;;;11.30;99.90;;;;;;6179420;23;20017;-82
2022/09/18 08:30:24;;;;;;;1.48;0.30;;;11.30;99.90;;;;;;6154214;23;20096;-83
2022/09/18 08:32:50;;;;;;;0.47;0.13;;;11.20;99.90;;;;;;6179217;23;20053;-81
2022/09/18 08:35:17;;;;;;;2.53;0.20;;;11.20;99.90;;;;;;6129875;23;20021;-82
2022/09/18 08:37:52;;;;;;;1.67;0.22;;;11.10;99.90;;;;;;6180752;23;20021;-83
2022/09/18 08:40:21;;;;;;;1.95;0.20;;;11.10;99.90;;;;;;6180621;23;20096;-84
2022/09/18 08:43:24;;;;;;;1.23;0.20;;;11.10;99.90;;;;;;6155767;23;20346;-83
2022/09/18 08:45:54;;;;;;;0.22;0.08;;;11.00;99.90;;;;;;6155355;23;20013;-82
2022/09/18 08:48:33;;;;;;;1.95;0.20;;;11.00;99.90;;;;;;6180162;23;20023;-81
2022/09/18 08:51:29;;;;;;;0.65;0.20;;;11.00;99.90;;;;;;6172208;23;20328;-80
2022/09/18 08:54:26;;;;;;;0.68;0.15;;;11.00;99.90;;;;;;6181211;23;20021;-82
2022/09/18 08:56:54;;;;;;;0.98;0.20;;;11.00;99.90;;;;;;6157582;23;20013;-82
2022/09/18 08:59:38;;;;;;;1.73;0.25;;;11.00;99.90;;;;;;6180410;23;20048;-81
2022/09/18 09:02:12;;;;;;;1.63;0.15;;;11.00;99.90;;;;;;6180390;23;20018;-82
2022/09/18 09:04:38;;;;;;;0.30;0.10;;;11.10;99.90;;;;;;6180502;23;20021;-86
2022/09/18 09:07:17;;;;;;;1.17;0.20;;;11.10;99.90;;;;;;6154923;23;20461;-84
2022/09/18 09:09:55;;;;;;;1.40;0.20;;;11.10;99.90;;;;;;6180342;23;20018;-85
2022/09/18 09:12:33;;;;;;;1.42;0.10;;;11.10;99.90;;;;;;6180371;23;20331;-83
2022/09/18 09:15:24;;;;;;;0.95;0.20;;;11.10;99.90;;;;;;6180351;23;20075;-83
2022/09/18 09:18:02;;;;;;;1.25;0.20;;;11.10;99.90;;;;;;6181828;23;20028;-82
2022/09/18 09:20:53;;;;;;;1.60;0.13;;;11.10;99.90;;;;;;6180117;23;20402;-82
2022/09/18 09:23:51;;;;;;;1.65;0.30;;;11.10;99.90;;;;;;6180080;23;20025;-79
2022/09/18 09:26:21;;;;;;;2.10;0.25;;;11.10;99.90;;;;;;6179888;23;20021;-85
2022/09/18 09:28:53;;;;;;;0.95;0.10;;;11.20;99.90;;;;;;6180125;23;20021;-83
2022/09/18 09:31:26;;;;;;;1.35;0.30;;;11.20;99.90;;;;;;6181671;23;20045;-83
2022/09/18 09:33:57;;;;;;;4.03;0.40;;;11.20;99.90;;;;;;6181519;22;20021;-82
2022/09/18 09:36:28;;;;;;;1.05;0.13;;;11.20;99.90;;;;;;6180017;23;20143;-81
2022/09/18 09:39:14;;;;;;;0.75;0.20;;;11.20;99.90;;;;;;6180386;23;20095;-82
2022/09/18 09:41:53;;;;;;;2.05;0.57;;;11.30;99.90;;;;;;6181228;23;20021;-80
2022/09/18 09:44:31;;;;;;;3.88;0.40;;;11.30;99.90;;;;;;6182112;23;20017;-84
2022/09/18 09:47:10;;;;;;;3.40;0.38;;;11.30;99.90;;;;;;6155444;23;20451;-85
2022/09/18 09:49:44;;;;;;;0.70;0.22;;;11.40;99.90;;;;;;6180090;23;20097;-84
2022/09/18 09:52:30;;;;;;;0.60;0.20;;;11.40;99.90;;;;;;6155523;23;20021;-84
2022/09/18 09:55:18;;;;;;;2.03;0.10;;;11.50;99.90;;;;;;6173544;23;20355;-82
2022/09/18 09:57:52;;;;;;;1.17;0.20;;;11.50;99.90;;;;;;6155371;23;20017;-83
2022/09/18 10:00:19;;;;;;;0.75;0.10;;;11.50;99.90;;;;;;6179931;23;20021;-85
2022/09/18 10:02:57;;;;;;;1.92;0.40;;;11.60;99.90;;;;;;6155286;23;20350;-83
2022/09/18 10:05:43;;;;;;;2.40;0.40;;;11.60;99.90;;;;;;6155315;23;20013;-82
2022/09/18 10:08:32;;;;;;;3.88;0.40;;;11.60;99.90;;;;;;6186703;23;20021;-82
2022/09/18 10:11:01;;;;;;;2.20;0.52;;;11.60;99.90;;;;;;6180200;23;20021;-80
2022/09/18 10:13:30;;;;;;;2.28;0.50;;;11.60;99.90;;;;;;6181662;23;20013;-80
2022/09/18 10:16:08;;;;;;;1.55;0.50;;;11.70;99.90;;;;;;6181802;23;20017;-83
2022/09/18 10:18:43;;;;;;;2.00;0.50;;;11.70;99.90;;;;;;6181761;23;20049;-81
2022/09/18 10:21:18;;;;;;;1.80;0.30;;;11.70;99.90;;;;;;6181573;23;20074;-82
2022/09/18 10:23:49;;;;;;;0.30;0.10;;;11.80;99.90;;;;;;6179674;23;20464;-83
2022/09/18 10:26:24;;;;;;;0.95;0.30;;;11.80;99.90;;;;;;6179993;23;20017;-83
2022/09/18 10:28:50;;;;;;;5.57;0.38;;;11.80;99.90;;;;;;6181465;23;20029;-82
2022/09/18 10:31:17;;;;;;;1.03;0.23;;;11.90;99.90;;;;;;6181147;22;20033;-82
2022/09/18 10:33:47;;;;;;;1.63;0.17;;;11.90;99.90;;;;;;6179748;23;20021;-83
2022/09/18 10:36:31;;;;;;;1.80;0.50;;;11.90;99.90;;;;;;6178488;23;20014;-83
2022/09/18 10:38:58;;;;;;;3.38;0.30;;;11.90;99.90;;;;;;6179300;23;20323;-82
2022/09/18 10:41:26;;;;;;;;;;;11.90;99.90;;;;;;6155480;23;20092;-82
2022/09/18 10:43:58;;;;;;;1.50;0.20;;;11.90;99.90;;;;;;6155111;22;19916;-81
2022/09/18 10:46:30;;;;;;;2.55;0.40;;;11.90;99.90;;;;;;6179916;23;20017;-81
2022/09/18 10:48:58;;;;;;;3.22;0.22;;;12.00;99.90;;;;;;6180137;23;20044;-82
2022/09/18 10:51:24;;;;;;;2.85;0.40;;;12.00;99.90;;;;;;6179916;23;20421;-82
2022/09/18 10:54:22;;;;;;;1.95;0.22;;;12.10;99.90;;;;;;6180035;23;20052;-82
2022/09/18 10:56:48;;;;;;;2.05;0.32;;;12.10;99.90;;;;;;6161204;23;20017;-82
2022/09/18 10:59:32;;;;;;;1.20;0.20;;;12.10;99.90;;;;;;6179610;23;20055;-81
2022/09/18 11:02:04;;;;;;;1.02;0.10;;;12.20;99.90;;;;;;6179761;23;20025;-80
2022/09/18 11:04:31;;;;;;;2.10;0.30;;;12.30;99.90;;;;;;6180186;23;20021;-81
2022/09/18 11:07:01;;;;;;;2.67;0.17;;;12.30;99.90;;;;;;6181676;23;20044;-81
2022/09/18 11:09:35;;;;;;;0.70;0.20;;;12.30;99.90;;;;;;6181442;23;20074;-82
2022/09/18 11:12:01;;;;;;;1.55;0.28;;;12.40;99.90;;;;;;6179962;23;20028;-82
2022/09/18 11:14:43;;;;;;;2.38;0.28;;;12.40;99.90;;;;;;6179737;23;20092;-85
2022/09/18 11:17:27;;;;;;;2.05;0.30;;;12.40;99.90;;;;;;6178149;23;20469;-82
2022/09/18 11:19:56;;;;;;;1.35;0.20;;;12.40;99.90;;;;;;6179539;23;20025;-81
2022/09/18 11:22:51;;;;;;;2.08;0.20;;;12.40;99.90;;;;;;6183795;23;20017;-80
2022/09/18 11:25:26;;;;;;;2.88;1.17;;;12.40;99.90;;;;;;6197892;23;20468;-87
2022/09/18 11:27:52;;;;;;;0.70;0.10;;;12.40;99.90;;;;;;6211252;23;20488;-82
2022/09/18 11:30:27;;;;;;;2.47;0.25;;;12.40;99.90;;;;;;6210977;23;20020;-83
2022/09/18 11:32:59;;;;;;;0.32;0.10;;;12.50;99.90;;;;;;6185029;23;20028;-88
2022/09/18 11:35:26;;;;;;;2.60;0.20;;;12.50;99.90;;;;;;6211419;23;20019;-82
2022/09/18 11:37:54;;;;;;;0.75;0.28;;;12.50;99.90;;;;;;6184586;23;20027;-85
2022/09/18 11:40:41;;;;;;;3.92;0.47;;;12.60;99.90;;;;;;6184845;23;20052;-85
2022/09/18 11:43:22;;;;;;;0.88;0.15;;;12.60;99.90;;;;;;6186154;22;20020;-83
2022/09/18 11:46:00;;;;;;;0.82;0.20;;;12.70;99.90;;;;;;6188005;23;20017;-84
2022/09/18 11:49:03;;;;;;;2.15;0.95;;;12.70;99.90;;;;;;6212631;23;20048;-84
2022/09/18 11:51:45;;;;;;;2.70;0.30;;;12.80;99.90;;;;;;6228169;23;20017;-83
2022/09/18 11:54:40;;;;;;;3.47;0.17;;;12.80;99.90;;;;;;6184124;23;20013;-82
2022/09/18 11:57:16;;;;;;;1.15;0.28;;;12.80;99.90;;;;;;6210782;23;20020;-84
2022/09/18 12:00:01;;;;;;;1.48;0.30;;;12.80;99.90;;;;;;6184239;23;20016;-84
2022/09/18 12:02:36;;;;;;;0.70;0.20;;;12.90;99.90;;;;;;6210832;23;20091;-81
2022/09/18 12:05:08;;;;;;;2.42;0.40;;;12.90;99.90;;;;;;6184223;22;20044;-82
2022/09/18 12:07:52;;;;;;;1.80;0.50;;;13.00;99.90;;;;;;6184593;23;20021;-82
2022/09/18 12:10:30;;;;;;;0.77;0.20;;;13.10;99.90;;;;;;6210917;23;20334;-85
2022/09/18 12:13:17;;;;;;;2.72;0.20;;;13.20;99.90;;;;;;6160242;23;20012;-84
2022/09/18 12:15:50;;;;;;;2.37;0.20;;;13.30;99.90;;;;;;6212303;23;20331;-84
2022/09/18 12:18:25;;;;;;;1.30;0.30;;;13.50;99.90;;;;;;6185722;23;20281;-83
2022/09/18 12:20:58;;;;;;;4.18;0.40;;;13.60;99.90;;;;;;6185242;23;20095;-83
2022/09/18 12:23:25;;;;;;;1.90;0.45;;;13.60;99.90;;;;;;6179219;23;20021;-82
2022/09/18 12:26:12;;;;;;;1.27;0.22;;;13.70;99.90;;;;;;6181819;23;20024;-84
2022/09/18 12:29:21;;;;;;;2.65;0.35;;;13.80;99.90;;;;;;6155633;23;20323;-82
2022/09/18 12:32:15;;;;;;;2.10;0.20;;;13.80;99.90;;;;;;6199583;23;20076;-84
2022/09/18 12:35:23;;;;;;;1.45;0.30;;;13.80;99.90;;;;;;6155227;23;20335;-84
2022/09/18 12:38:14;;;;;;;0.65;0.15;;;13.80;99.90;;;;;;6180225;23;20017;-82
2022/09/18 12:41:19;;;;;;;2.22;0.50;;;13.80;99.90;;;;;;6180480;23;20017;-83
2022/09/18 12:44:02;;;;;;;2.38;0.40;;;13.80;99.90;;;;;;6180152;23;20017;-83
2022/09/18 12:47:07;;;;;;;2.20;0.40;;;13.90;99.90;;;;;;6155466;23;20520;-83
2022/09/18 12:50:16;;;;;;;2.53;0.30;;;13.90;99.90;;;;;;6181656;23;20066;-84
2022/09/18 12:53:03;;;;;;;1.92;0.30;;;13.90;99.90;;;;;;6180356;23;20017;-84
2022/09/18 12:55:39;;;;;;;2.17;0.30;;;13.90;99.90;;;;;;6155212;23;20021;-85
2022/09/18 12:58:23;;;;;;;4.13;0.63;;;13.90;99.90;;;;;;6181879;23;20017;-84
2022/09/18 13:00:51;;;;;;;1.08;0.20;;;13.70;99.90;;;;;;6180287;23;20062;-83
2022/09/18 13:03:28;;;;;;;0.85;0.30;;;13.40;99.90;;;;;;6180284;23;20025;-85
2022/09/18 13:05:58;;;;;;;1.02;0.20;;;13.00;99.90;;;;;;6180257;23;20088;-83
2022/09/18 13:08:31;;;;;;;0.17;0.10;;;12.80;99.90;;;;;;6155636;23;20021;-84
2022/09/18 13:11:08;;;;;;;2.60;0.30;;;12.70;99.90;;;;;;6181870;23;20020;-84
2022/09/18 13:13:43;;;;;;;1.73;0.32;;;12.60;99.90;;;;;;6180283;23;20009;-84
2022/09/18 13:16:27;;;;;;;2.42;0.30;;;12.70;99.90;;;;;;6155542;23;20406;-83
2022/09/18 13:19:24;;;;;;;0.85;0.20;;;12.60;99.90;;;;;;6180177;23;20095;-84
2022/09/18 13:21:51;;;;;;;2.05;0.20;;;12.60;99.90;;;;;;6180354;23;20025;-84